Time;durP1;ratioP1;P1;durP2;ratioP2;P2;SDS_P1;SDS_P2;PMS_P1;PMS_P2;Temp;Humidity;BMP_temperature;BMP_pressure;BME280_temperature;BME280_humidity;BME280_pressure;Samples;Min_cycle;Max_cycle;Signal;HPM_P1;HPM_P2
2023/01/17 00:00:05;;;;;;;3.03;1.50;;;10.80;86.10;;;;;;5088325;28;20396;-77
2023/01/17 00:02:30;;;;;;;2.17;1.20;;;10.80;86.60;;;;;;5087123;28;20028;-76
2023/01/17 00:10:26;;;;;;;2.67;1.55;;;10.80;86.10;;;;;;5087893;28;20847;-76
2023/01/17 00:13:00;;;;;;;2.30;1.40;;;10.80;86.10;;;;;;5088164;28;20036;-76
2023/01/17 00:15:27;;;;;;;2.55;1.42;;;10.80;86.00;;;;;;5087062;28;20076;-77
2023/01/17 00:17:53;;;;;;;2.72;1.75;;;10.80;86.10;;;;;;5086724;28;20028;-77
2023/01/17 00:26:01;;;;;;;2.38;1.58;;;10.80;86.10;;;;;;5088227;28;20403;-76
2023/01/17 01:35:20;;;;;;;3.28;1.77;;;10.70;86.20;;;;;;5091315;28;20085;-77
2023/01/17 01:37:46;;;;;;;2.30;1.60;;;10.80;86.30;;;;;;5090793;28;20054;-77
2023/01/17 01:40:15;;;;;;;2.88;1.50;;;10.80;86.30;;;;;;5090649;28;20044;-78
2023/01/17 01:42:58;;;;;;;3.00;1.77;;;10.80;86.30;;;;;;5090581;28;20122;-78
2023/01/17 01:45:26;;;;;;;2.55;1.70;;;10.80;86.30;;;;;;5089196;28;20027;-77
2023/01/17 01:48:23;;;;;;;2.85;1.70;;;10.80;86.30;;;;;;5090619;28;20024;-78
2023/01/17 01:50:49;;;;;;;1.70;1.20;;;10.80;86.30;;;;;;5091469;28;20363;-78
2023/01/17 01:53:17;;;;;;;2.85;1.70;;;10.80;86.30;;;;;;5091292;28;20251;-76
2023/01/17 01:55:47;;;;;;;2.22;1.40;;;10.80;86.40;;;;;;5090298;28;20024;-78
2023/01/17 01:58:20;;;;;;;2.80;1.52;;;10.80;86.40;;;;;;5091160;28;20016;-76
2023/01/17 02:00:46;;;;;;;2.00;1.40;;;10.80;86.30;;;;;;5090710;28;20388;-78
2023/01/17 02:03:26;;;;;;;2.40;1.40;;;10.80;86.30;;;;;;5089547;28;20028;-78
2023/01/17 02:05:51;;;;;;;2.42;1.50;;;10.80;86.60;;;;;;5089751;28;20032;-78
2023/01/17 02:08:20;;;;;;;2.00;1.48;;;10.80;86.30;;;;;;5089368;28;20416;-78
2023/01/17 02:10:46;;;;;;;2.15;1.50;;;10.80;86.40;;;;;;5089327;28;20051;-77
2023/01/17 02:13:14;;;;;;;2.38;1.38;;;10.80;86.40;;;;;;5090270;28;20028;-79
2023/01/17 02:16:11;;;;;;;1.95;1.35;;;10.80;86.40;;;;;;5091018;28;20023;-79
2023/01/17 02:19:09;;;;;;;2.35;1.50;;;10.80;86.40;;;;;;5089933;28;20085;-78
2023/01/17 02:21:52;;;;;;;2.60;1.58;;;10.80;86.40;;;;;;5087601;28;20028;-77
2023/01/17 02:24:56;;;;;;;1.95;1.40;;;10.80;86.40;;;;;;5090041;28;20020;-77
2023/01/17 02:27:47;;;;;;;2.38;1.50;;;10.80;86.40;;;;;;5077157;28;20032;-76
2023/01/17 02:30:41;;;;;;;2.08;1.40;;;10.80;86.50;;;;;;5088725;28;20551;-78
2023/01/17 02:33:41;;;;;;;2.08;1.48;;;10.80;86.40;;;;;;5090303;28;20042;-78
2023/01/17 02:36:21;;;;;;;2.58;1.50;;;10.80;86.40;;;;;;5088550;28;20073;-78
2023/01/17 02:38:51;;;;;;;2.00;1.40;;;10.80;86.40;;;;;;5088434;28;20032;-76
2023/01/17 02:41:23;;;;;;;2.55;1.50;;;10.80;86.50;;;;;;5088499;28;20032;-77
2023/01/17 02:43:50;;;;;;;2.45;1.55;;;10.80;86.40;;;;;;5088891;28;20124;-77
2023/01/17 02:46:15;;;;;;;1.67;1.30;;;10.80;86.50;;;;;;5089880;28;20028;-78
2023/01/17 02:48:42;;;;;;;2.45;1.50;;;10.80;86.50;;;;;;5088091;28;20032;-77
2023/01/17 02:51:35;;;;;;;2.72;1.60;;;10.80;86.50;;;;;;5089420;28;20036;-77
2023/01/17 02:54:22;;;;;;;2.78;1.45;;;10.80;86.40;;;;;;5089186;28;20024;-80
2023/01/17 02:57:12;;;;;;;2.08;1.35;;;10.80;86.50;;;;;;5088068;28;20089;-78
2023/01/17 03:00:05;;;;;;;2.03;1.40;;;10.80;86.40;;;;;;5089418;28;20070;-79
2023/01/17 03:02:53;;;;;;;2.60;1.50;;;10.80;86.40;;;;;;5089414;28;20901;-76
2023/01/17 03:05:32;;;;;;;1.88;1.30;;;10.80;86.40;;;;;;5089067;28;20032;-77
2023/01/17 03:08:00;;;;;;;1.83;1.40;;;10.80;86.90;;;;;;5087813;28;20024;-80
2023/01/17 03:10:25;;;;;;;1.88;1.30;;;10.70;86.30;;;;;;5088156;28;20036;-78
2023/01/17 03:12:56;;;;;;;1.80;1.30;;;10.80;86.40;;;;;;5075332;28;20090;-79
2023/01/17 03:15:22;;;;;;;2.03;1.30;;;10.80;86.40;;;;;;5069532;28;20032;-79
2023/01/17 03:17:51;;;;;;;1.55;1.30;;;10.80;86.40;;;;;;5067619;28;20036;-79
2023/01/17 03:20:17;;;;;;;2.38;1.40;;;10.80;86.40;;;;;;5068176;28;20025;-78
2023/01/17 03:22:42;;;;;;;2.60;1.40;;;10.80;86.40;;;;;;5067382;28;20065;-78
2023/01/17 03:25:08;;;;;;;2.10;1.45;;;10.80;86.40;;;;;;5083031;28;20028;-77
2023/01/17 03:27:33;;;;;;;1.88;1.42;;;10.80;86.40;;;;;;5100011;28;20031;-78
2023/01/17 03:30:00;;;;;;;2.03;1.38;;;10.70;86.40;;;;;;5108694;28;20047;-78
2023/01/17 03:32:26;;;;;;;2.35;1.40;;;10.70;86.40;;;;;;5107285;28;20027;-79
2023/01/17 03:34:51;;;;;;;1.55;1.27;;;10.80;86.40;;;;;;5109664;28;20388;-79
2023/01/17 03:37:17;;;;;;;2.15;1.35;;;10.80;86.50;;;;;;5107665;28;20111;-78
2023/01/17 03:39:42;;;;;;;2.28;1.40;;;10.80;86.50;;;;;;5108363;28;20063;-78
2023/01/17 03:42:08;;;;;;;3.05;1.48;;;10.70;86.40;;;;;;5108940;28;20027;-77
2023/01/17 03:44:33;;;;;;;2.03;1.30;;;10.80;86.40;;;;;;5109008;28;20111;-79
2023/01/17 03:46:59;;;;;;;1.60;1.17;;;10.80;86.40;;;;;;5107845;28;20027;-77
2023/01/17 03:49:25;;;;;;;2.47;1.17;;;10.80;86.40;;;;;;5107225;28;20034;-77
2023/01/17 03:51:51;;;;;;;2.28;1.35;;;10.80;86.50;;;;;;5108822;28;20051;-78
2023/01/17 03:54:16;;;;;;;2.35;1.45;;;10.70;86.30;;;;;;5107118;28;20030;-78
2023/01/17 03:56:42;;;;;;;2.67;1.58;;;10.80;86.40;;;;;;5107148;28;20499;-79
2023/01/17 03:59:07;;;;;;;2.35;1.20;;;10.80;86.70;;;;;;5111490;28;20023;-79
2023/01/17 04:01:32;;;;;;;2.17;1.20;;;10.80;86.40;;;;;;5108254;28;20030;-80
2023/01/17 04:03:58;;;;;;;2.00;1.30;;;10.80;86.40;;;;;;5109726;28;20455;-78
2023/01/17 04:06:23;;;;;;;1.48;1.17;;;10.80;86.30;;;;;;5108737;28;20019;-78
2023/01/17 04:08:49;;;;;;;1.55;1.15;;;10.70;86.30;;;;;;5108687;28;20027;-76
2023/01/17 04:11:14;;;;;;;1.83;1.20;;;10.80;86.30;;;;;;5107516;28;20557;-78
2023/01/17 04:13:40;;;;;;;1.38;1.02;;;10.80;86.30;;;;;;5107059;28;20062;-79
2023/01/17 04:16:14;;;;;;;2.15;1.10;;;10.70;86.20;;;;;;5108482;28;20391;-78
2023/01/17 04:18:40;;;;;;;2.00;1.15;;;10.70;86.20;;;;;;5107663;28;20307;-78
2023/01/17 04:21:06;;;;;;;1.60;1.20;;;10.80;86.30;;;;;;5107981;28;20583;-77
2023/01/17 04:23:32;;;;;;;1.92;1.10;;;10.80;86.30;;;;;;5106822;28;20584;-80
2023/01/17 04:25:58;;;;;;;1.48;1.15;;;10.70;86.20;;;;;;5109805;28;20020;-79
2023/01/17 04:28:23;;;;;;;1.38;1.00;;;10.80;86.20;;;;;;5108236;28;20023;-77
2023/01/17 04:30:49;;;;;;;2.10;1.20;;;10.80;86.20;;;;;;5107992;28;20055;-77
2023/01/17 04:33:15;;;;;;;1.30;1.10;;;10.70;86.20;;;;;;5107016;28;20031;-79
2023/01/17 04:35:40;;;;;;;1.90;1.13;;;10.80;86.20;;;;;;5107189;28;20115;-76
2023/01/17 04:38:06;;;;;;;1.45;1.00;;;10.80;86.20;;;;;;5108508;28;20388;-77
2023/01/17 04:43:47;;;;;;;1.60;1.10;;;10.80;86.10;;;;;;5046137;28;20652;-75
2023/01/17 04:49:44;;;;;;;1.23;1.00;;;10.70;86.00;;;;;;5051056;28;20079;-79
2023/01/17 05:06:44;;;;;;;1.10;0.80;;;10.70;85.90;;;;;;4898860;29;20036;-78
2023/01/17 05:20:51;;;;;;;1.15;0.80;;;10.80;85.90;;;;;;5051974;22;20606;-77
2023/01/17 05:24:31;;;;;;;;;;;;;;;;;;;;;
2023/01/17 05:34:14;;;;;;;1.30;0.70;;;10.80;85.90;;;;;;4895439;29;20851;-79
2023/01/17 05:37:00;;;;;;;1.58;0.70;;;10.70;85.90;;;;;;4920208;29;20039;-78
2023/01/17 05:39:25;;;;;;;1.70;0.80;;;10.80;86.00;;;;;;4987481;28;20432;-77
2023/01/17 06:17:27;;;;;;;1.05;0.70;;;10.70;86.10;;;;;;5030051;28;20422;-80
2023/01/17 06:19:53;;;;;;;0.60;0.60;;;10.70;86.10;;;;;;5031399;28;20033;-77
2023/01/17 06:22:18;;;;;;;0.60;0.60;;;10.70;86.10;;;;;;5034195;28;20013;-80
2023/01/17 06:24:43;;;;;;;0.93;0.70;;;10.70;86.10;;;;;;5019672;28;20022;-78
2023/01/17 06:27:09;;;;;;;1.08;0.73;;;10.70;86.10;;;;;;5037151;28;20025;-79
2023/01/17 06:29:35;;;;;;;1.15;0.70;;;10.70;86.00;;;;;;5018378;28;20025;-81
2023/01/17 06:32:01;;;;;;;1.13;0.70;;;10.70;85.80;;;;;;5018500;28;20617;-80
2023/01/17 06:34:27;;;;;;;1.00;0.60;;;10.80;85.80;;;;;;5001122;28;20033;-80
2023/01/17 06:36:53;;;;;;;0.80;0.60;;;10.70;85.70;;;;;;5014329;28;20025;-82
2023/01/17 06:39:18;;;;;;;1.23;0.73;;;10.70;85.80;;;;;;4999801;28;20026;-80
2023/01/17 06:41:44;;;;;;;6.30;1.00;;;10.70;85.80;;;;;;5017284;28;20044;-82
2023/01/17 06:44:09;;;;;;;0.50;0.50;;;10.70;85.70;;;;;;5016263;28;20022;-82
2023/01/17 06:46:35;;;;;;;0.90;0.47;;;10.70;85.70;;;;;;5017555;28;20080;-80
2023/01/17 06:49:00;;;;;;;1.25;0.60;;;10.70;85.80;;;;;;4999563;28;20057;-80
2023/01/17 06:51:26;;;;;;;3.15;1.13;;;10.70;85.80;;;;;;5000045;28;20029;-82
2023/01/17 06:53:52;;;;;;;0.88;0.70;;;10.70;85.80;;;;;;4999444;28;20054;-81
2023/01/17 06:56:18;;;;;;;1.02;0.60;;;10.70;85.90;;;;;;5017678;28;20044;-79
2023/01/17 06:58:47;;;;;;;0.93;0.70;;;10.70;85.80;;;;;;5016974;28;20124;-81
2023/01/17 07:01:12;;;;;;;1.05;0.70;;;10.70;85.90;;;;;;4999088;28;20033;-80
2023/01/17 07:03:38;;;;;;;1.00;0.50;;;10.70;85.90;;;;;;4998717;28;20433;-80
2023/01/17 07:06:04;;;;;;;0.85;0.43;;;10.70;85.90;;;;;;5016914;28;20018;-79
2023/01/17 07:08:31;;;;;;;0.70;0.50;;;10.70;85.90;;;;;;4997957;28;20022;-81
2023/01/17 07:11:01;;;;;;;0.95;0.70;;;10.70;85.90;;;;;;4997598;28;20033;-81
2023/01/17 07:13:28;;;;;;;2.35;0.80;;;10.70;86.00;;;;;;5013553;28;20033;-82
2023/01/17 07:15:54;;;;;;;0.75;0.50;;;10.70;85.90;;;;;;4999015;28;20030;-81
2023/01/17 07:18:22;;;;;;;1.88;0.73;;;10.70;86.00;;;;;;5016092;28;20391;-81
2023/01/17 07:20:51;;;;;;;0.70;0.65;;;10.70;86.00;;;;;;5016399;28;20049;-82
2023/01/17 07:23:18;;;;;;;1.90;0.57;;;10.70;86.00;;;;;;4998113;28;20116;-81
2023/01/17 07:25:53;;;;;;;1.80;0.70;;;10.70;86.00;;;;;;4998116;28;20036;-81
2023/01/17 07:28:19;;;;;;;1.83;0.77;;;10.70;86.00;;;;;;5017895;28;20104;-82
2023/01/17 07:30:44;;;;;;;1.23;0.65;;;10.70;86.00;;;;;;5018703;28;20060;-82
2023/01/17 07:33:10;;;;;;;1.00;0.75;;;10.70;86.00;;;;;;5000606;28;20044;-83
2023/01/17 07:35:36;;;;;;;1.38;0.80;;;10.70;86.10;;;;;;5000842;28;20022;-82
2023/01/17 07:38:02;;;;;;;1.60;0.60;;;10.70;86.10;;;;;;5000105;28;20079;-81
2023/01/17 07:40:28;;;;;;;0.60;0.60;;;10.70;86.10;;;;;;4999860;28;20482;-81
2023/01/17 07:42:59;;;;;;;0.63;0.52;;;10.70;86.10;;;;;;5017470;28;20079;-82
2023/01/17 07:45:25;;;;;;;1.65;0.70;;;10.70;86.10;;;;;;4999982;28;20040;-81
2023/01/17 07:47:50;;;;;;;0.93;0.65;;;10.70;86.10;;;;;;5017604;28;20530;-82
2023/01/17 07:50:16;;;;;;;0.85;0.50;;;10.70;86.10;;;;;;4995435;28;20037;-80
2023/01/17 07:52:41;;;;;;;1.08;0.60;;;10.70;86.10;;;;;;4997489;28;20117;-82
2023/01/17 07:55:08;;;;;;;0.90;0.55;;;10.70;86.10;;;;;;5017032;28;20525;-83
2023/01/17 07:57:33;;;;;;;0.65;0.60;;;10.70;86.10;;;;;;4999006;28;20121;-83
2023/01/17 07:59:58;;;;;;;1.45;0.65;;;10.70;86.10;;;;;;4998655;28;20459;-81
2023/01/17 08:02:24;;;;;;;1.48;0.70;;;10.70;86.20;;;;;;4998334;28;20022;-81
2023/01/17 08:04:49;;;;;;;0.47;0.47;;;10.70;86.10;;;;;;5016200;28;20037;-83
2023/01/17 08:07:15;;;;;;;0.93;0.55;;;10.70;86.10;;;;;;4998019;28;20030;-81
2023/01/17 08:09:42;;;;;;;0.90;0.60;;;10.70;86.10;;;;;;4996929;28;20402;-80
2023/01/17 08:12:08;;;;;;;1.00;0.70;;;10.70;86.10;;;;;;5013066;28;20033;-81
2023/01/17 08:14:33;;;;;;;1.65;0.70;;;10.80;86.00;;;;;;5015406;28;20056;-80
2023/01/17 08:17:09;;;;;;;0.45;0.45;;;10.80;85.90;;;;;;4996967;28;20034;-81
2023/01/17 08:19:34;;;;;;;0.90;0.68;;;10.80;85.70;;;;;;4996048;28;20037;-83
2023/01/17 08:22:00;;;;;;;0.65;0.60;;;10.90;85.70;;;;;;5003749;28;20029;-81
2023/01/17 08:24:25;;;;;;;0.90;0.60;;;10.80;85.60;;;;;;5033458;28;20025;-81
2023/01/17 08:26:53;;;;;;;1.92;0.52;;;10.90;85.50;;;;;;5033558;28;20092;-82
2023/01/17 08:29:19;;;;;;;1.23;0.70;;;10.90;85.40;;;;;;5034218;28;20013;-80
2023/01/17 08:31:44;;;;;;;2.88;0.63;;;10.90;85.30;;;;;;5014316;28;20075;-81
2023/01/17 08:34:10;;;;;;;1.35;0.60;;;10.90;85.40;;;;;;5033195;28;20120;-81
2023/01/17 08:36:35;;;;;;;1.23;0.75;;;10.90;85.40;;;;;;5016436;28;20095;-80
2023/01/17 08:39:01;;;;;;;1.15;0.70;;;10.80;85.90;;;;;;5034292;28;20473;-81
2023/01/17 08:41:26;;;;;;;1.23;0.65;;;10.80;85.50;;;;;;5033584;28;20033;-81
2023/01/17 08:43:52;;;;;;;0.95;0.70;;;10.80;85.60;;;;;;5033978;28;20375;-81
2023/01/17 08:46:18;;;;;;;2.15;0.75;;;10.80;85.70;;;;;;5033613;28;20037;-81
2023/01/17 08:48:44;;;;;;;4.80;1.10;;;10.80;85.70;;;;;;5014292;28;20033;-82
2023/01/17 08:51:11;;;;;;;1.23;0.63;;;10.80;85.70;;;;;;5014795;28;20022;-81
2023/01/17 08:53:37;;;;;;;1.63;0.70;;;10.80;85.80;;;;;;5033033;28;20029;-81
2023/01/17 08:56:04;;;;;;;1.45;0.80;;;10.80;85.80;;;;;;5015487;28;20040;-81
2023/01/17 08:58:30;;;;;;;3.50;1.10;;;10.80;85.80;;;;;;5014857;28;20028;-81
2023/01/17 09:01:04;;;;;;;1.80;0.70;;;10.80;85.80;;;;;;5014319;28;20556;-81
2023/01/17 09:03:31;;;;;;;1.48;0.80;;;10.80;85.80;;;;;;5013873;28;20064;-81
2023/01/17 09:06:04;;;;;;;0.93;0.70;;;10.80;85.80;;;;;;5032187;28;20022;-81
2023/01/17 09:08:30;;;;;;;2.30;0.90;;;10.80;85.70;;;;;;5014068;28;20028;-81
2023/01/17 09:10:55;;;;;;;1.35;0.80;;;10.80;85.60;;;;;;5014023;28;20549;-79
2023/01/17 09:13:21;;;;;;;1.65;0.75;;;10.90;85.50;;;;;;5014599;28;20026;-80
2023/01/17 09:15:46;;;;;;;1.15;0.68;;;10.90;85.40;;;;;;5032748;28;20026;-80
2023/01/17 09:18:12;;;;;;;0.90;0.70;;;10.90;85.30;;;;;;5014040;28;20068;-80
2023/01/17 09:20:37;;;;;;;2.15;1.00;;;10.90;85.30;;;;;;5031483;28;20033;-80
2023/01/17 09:23:03;;;;;;;1.77;0.80;;;11.00;85.30;;;;;;5031868;28;20026;-80
2023/01/17 09:25:29;;;;;;;0.60;0.60;;;11.00;85.10;;;;;;5031976;28;20025;-81
2023/01/17 09:27:54;;;;;;;1.75;1.00;;;11.10;85.00;;;;;;5032334;28;20059;-80
2023/01/17 09:30:21;;;;;;;2.25;0.95;;;11.10;84.70;;;;;;5014896;28;20087;-82
2023/01/17 09:32:53;;;;;;;1.42;0.90;;;11.10;84.60;;;;;;5017584;28;20117;-81
2023/01/17 09:35:19;;;;;;;1.00;0.80;;;11.10;84.50;;;;;;5035091;28;20030;-78
2023/01/17 09:37:48;;;;;;;1.17;0.70;;;11.20;84.50;;;;;;5017807;28;20025;-82
2023/01/17 09:40:23;;;;;;;1.38;0.80;;;11.30;84.40;;;;;;5017083;28;20386;-81
2023/01/17 09:43:00;;;;;;;1.27;0.75;;;11.30;84.30;;;;;;5017189;28;20056;-81
2023/01/17 09:45:29;;;;;;;1.00;0.70;;;11.30;84.10;;;;;;5017256;28;20022;-80
2023/01/17 09:47:55;;;;;;;1.23;0.82;;;11.30;84.00;;;;;;5017258;28;20025;-81
2023/01/17 09:50:30;;;;;;;0.82;0.63;;;11.40;83.90;;;;;;5017142;28;20032;-81
2023/01/17 09:53:13;;;;;;;1.73;0.90;;;11.50;83.90;;;;;;5034843;28;20367;-81
2023/01/17 09:56:02;;;;;;;2.42;0.98;;;11.40;83.70;;;;;;5034731;28;20025;-80
2023/01/17 09:58:40;;;;;;;1.20;0.70;;;11.40;83.80;;;;;;5016996;28;20021;-81
2023/01/17 10:01:23;;;;;;;1.42;0.68;;;11.30;83.80;;;;;;5034501;28;20034;-82
2023/01/17 10:04:22;;;;;;;1.10;0.70;;;11.40;83.90;;;;;;5035342;28;20104;-80
2023/01/17 10:07:29;;;;;;;1.67;0.90;;;11.30;84.00;;;;;;5037818;28;20046;-84
2023/01/17 10:10:04;;;;;;;1.50;0.88;;;11.40;84.50;;;;;;5037599;28;20025;-83
2023/01/17 10:12:45;;;;;;;1.63;0.70;;;11.40;83.90;;;;;;5021230;28;20048;-81
2023/01/17 10:15:41;;;;;;;1.10;0.65;;;11.40;83.90;;;;;;5021963;28;20565;-82
2023/01/17 10:18:51;;;;;;;1.52;0.85;;;11.40;83.80;;;;;;5020924;28;20026;-82
2023/01/17 10:21:42;;;;;;;1.10;0.80;;;11.50;83.60;;;;;;5038878;28;20030;-81
2023/01/17 10:24:16;;;;;;;0.82;0.65;;;11.50;83.40;;;;;;5038379;28;20033;-83
2023/01/17 10:26:49;;;;;;;0.70;0.70;;;11.60;83.30;;;;;;5019834;28;20036;-81
2023/01/17 10:29:17;;;;;;;0.93;0.73;;;11.60;83.20;;;;;;5038193;28;20026;-82
2023/01/17 10:31:51;;;;;;;1.63;0.85;;;11.70;83.10;;;;;;5019929;28;20032;-82
2023/01/17 10:34:39;;;;;;;1.02;0.70;;;11.70;83.00;;;;;;5019878;28;20092;-82
2023/01/17 10:37:37;;;;;;;1.35;0.80;;;11.70;82.90;;;;;;5038029;28;20025;-81
2023/01/17 10:40:30;;;;;;;1.77;1.00;;;11.70;83.00;;;;;;5037586;28;20116;-82
2023/01/17 10:43:18;;;;;;;2.45;0.85;;;11.80;82.70;;;;;;5018379;28;20064;-81
2023/01/17 10:45:54;;;;;;;1.80;0.80;;;11.80;82.80;;;;;;5037578;28;20504;-82
2023/01/17 10:48:33;;;;;;;1.23;0.90;;;11.80;82.90;;;;;;5019156;28;20474;-80
2023/01/17 10:51:22;;;;;;;1.58;0.80;;;11.80;82.80;;;;;;5037571;28;20113;-81
2023/01/17 10:53:56;;;;;;;2.63;0.80;;;11.80;82.70;;;;;;4978615;28;20038;-81
2023/01/17 10:56:26;;;;;;;1.38;0.80;;;11.80;82.70;;;;;;5018445;28;20400;-80
2023/01/17 10:59:16;;;;;;;2.03;0.90;;;11.90;82.50;;;;;;5037536;28;20525;-82
2023/01/17 11:01:41;;;;;;;1.38;0.80;;;11.90;82.30;;;;;;5038462;28;20112;-82
2023/01/17 11:04:25;;;;;;;1.50;0.90;;;12.00;82.30;;;;;;5020655;28;20049;-82
2023/01/17 11:07:20;;;;;;;1.17;0.80;;;12.00;82.00;;;;;;5020804;28;20036;-83
2023/01/17 11:09:54;;;;;;;1.27;0.88;;;12.00;82.10;;;;;;5020484;28;20032;-81
2023/01/17 11:12:27;;;;;;;1.83;0.90;;;12.00;82.20;;;;;;5020171;28;20025;-80
2023/01/17 11:15:07;;;;;;;1.50;0.90;;;12.00;82.30;;;;;;5020665;28;20025;-81
2023/01/17 11:17:35;;;;;;;0.95;0.80;;;12.00;82.90;;;;;;5018989;28;20063;-82
2023/01/17 11:20:22;;;;;;;1.33;0.80;;;12.00;82.20;;;;;;5019511;28;20048;-82
2023/01/17 11:23:06;;;;;;;1.35;0.93;;;12.00;82.20;;;;;;5018633;28;20048;-81
2023/01/17 11:25:33;;;;;;;2.00;1.17;;;12.00;82.30;;;;;;5015844;28;20425;-81
2023/01/17 11:28:25;;;;;;;2.08;0.90;;;11.90;83.00;;;;;;5037714;28;20411;-83
2023/01/17 11:31:02;;;;;;;1.73;0.98;;;11.90;82.50;;;;;;5018686;28;20422;-81
2023/01/17 11:33:46;;;;;;;1.42;0.82;;;11.80;82.60;;;;;;5018343;28;20560;-81
2023/01/17 11:36:31;;;;;;;1.73;0.90;;;11.90;82.80;;;;;;5018792;28;20398;-81
2023/01/17 11:39:04;;;;;;;1.20;0.80;;;11.90;82.60;;;;;;5035803;28;20017;-81
2023/01/17 11:41:40;;;;;;;2.17;0.95;;;12.00;82.30;;;;;;5018241;28;20026;-81
2023/01/17 11:44:25;;;;;;;1.60;0.90;;;12.00;82.20;;;;;;5035816;28;20021;-81
2023/01/17 11:47:15;;;;;;;1.95;1.05;;;12.10;82.00;;;;;;5017739;28;20079;-81
2023/01/17 11:49:43;;;;;;;1.77;1.00;;;12.10;81.80;;;;;;5035742;28;20036;-80
2023/01/17 11:52:24;;;;;;;1.40;1.10;;;12.10;81.90;;;;;;5017162;28;20083;-81
2023/01/17 11:54:52;;;;;;;1.80;1.00;;;12.10;81.80;;;;;;5017488;28;20090;-84
2023/01/17 11:57:26;;;;;;;2.03;1.00;;;12.10;81.80;;;;;;5034780;28;20037;-81
2023/01/17 12:00:18;;;;;;;2.95;1.30;;;12.20;81.60;;;;;;5014637;28;20147;-81
2023/01/17 12:03:09;;;;;;;1.92;1.00;;;12.20;81.50;;;;;;5014680;28;20025;-81
2023/01/17 12:05:55;;;;;;;7.93;1.88;;;12.20;81.50;;;;;;5016184;28;20036;-81
2023/01/17 12:08:44;;;;;;;2.03;1.15;;;12.20;81.40;;;;;;5034225;28;20101;-81
2023/01/17 12:11:13;;;;;;;2.25;1.10;;;12.20;81.30;;;;;;4978131;28;20532;-81
2023/01/17 12:14:00;;;;;;;2.35;1.17;;;12.20;81.20;;;;;;5014626;28;20517;-81
2023/01/17 12:16:34;;;;;;;1.65;1.02;;;12.30;81.30;;;;;;5014599;28;20535;-81
2023/01/17 12:19:11;;;;;;;2.50;1.20;;;12.20;81.20;;;;;;5014853;28;20079;-81
2023/01/17 12:22:07;;;;;;;2.75;1.30;;;12.20;81.30;;;;;;5032231;28;20028;-83
2023/01/17 12:25:03;;;;;;;1.60;1.10;;;12.20;81.50;;;;;;5016714;28;20071;-79
2023/01/17 12:27:36;;;;;;;2.03;1.27;;;12.20;82.00;;;;;;5033503;28;20021;-81
2023/01/17 12:30:29;;;;;;;2.13;1.10;;;12.20;81.70;;;;;;5033839;28;20441;-81
2023/01/17 12:33:04;;;;;;;2.67;1.17;;;12.10;81.70;;;;;;5032463;28;20041;-80
2023/01/17 12:35:32;;;;;;;1.95;1.25;;;12.10;82.00;;;;;;5031942;28;20026;-81
2023/01/17 12:38:07;;;;;;;1.88;1.10;;;12.00;82.40;;;;;;5014270;28;20046;-81
2023/01/17 12:40:39;;;;;;;3.25;1.50;;;11.90;82.50;;;;;;5032762;28;20029;-80
2023/01/17 12:43:18;;;;;;;3.05;1.30;;;11.80;82.70;;;;;;5032788;28;20021;-82
2023/01/17 12:45:46;;;;;;;3.30;1.50;;;11.80;82.80;;;;;;5032623;28;20021;-81
2023/01/17 12:48:18;;;;;;;3.85;1.50;;;11.80;82.70;;;;;;5015074;28;20034;-80
2023/01/17 12:51:03;;;;;;;2.45;1.30;;;11.80;83.00;;;;;;5032355;28;20041;-79
2023/01/17 12:53:52;;;;;;;3.38;1.50;;;11.70;83.00;;;;;;5014293;28;20022;-82
2023/01/17 12:56:23;;;;;;;2.30;1.40;;;11.70;83.00;;;;;;5032092;28;20497;-80
2023/01/17 12:58:58;;;;;;;3.22;1.35;;;11.70;83.10;;;;;;5014454;28;20022;-80
2023/01/17 13:01:30;;;;;;;2.70;1.50;;;11.70;83.20;;;;;;5031634;28;20494;-80
2023/01/17 13:04:15;;;;;;;2.70;1.60;;;11.80;83.80;;;;;;5031683;28;20036;-81
2023/01/17 13:06:55;;;;;;;3.38;1.60;;;11.80;83.10;;;;;;5034499;28;20018;-80
2023/01/17 13:09:22;;;;;;;2.90;1.60;;;11.70;83.00;;;;;;5035795;28;20108;-80
2023/01/17 13:11:55;;;;;;;2.53;1.55;;;11.70;83.10;;;;;;5017901;28;20037;-82
2023/01/17 13:14:21;;;;;;;3.53;1.63;;;11.70;83.30;;;;;;5035604;28;20036;-79
2023/01/17 13:16:57;;;;;;;3.05;1.60;;;11.70;83.50;;;;;;5035592;28;20037;-79
2023/01/17 13:19:46;;;;;;;2.83;1.60;;;11.60;83.50;;;;;;5017407;28;20026;-79
2023/01/17 13:22:16;;;;;;;3.60;1.55;;;11.60;83.50;;;;;;5035794;28;20049;-80
2023/01/17 13:25:14;;;;;;;3.38;1.70;;;11.60;83.50;;;;;;5035330;28;20017;-80
2023/01/17 13:28:01;;;;;;;3.22;1.67;;;11.60;83.60;;;;;;5035354;28;20390;-79
2023/01/17 13:30:42;;;;;;;2.85;1.70;;;11.60;83.70;;;;;;5035341;28;20025;-80
2023/01/17 13:33:46;;;;;;;2.88;1.38;;;11.60;84.20;;;;;;5017634;28;20029;-80
2023/01/17 13:36:36;;;;;;;3.47;1.75;;;11.60;83.80;;;;;;5017313;28;20033;-80
2023/01/17 13:39:30;;;;;;;;;;;11.50;83.80;;;;;;5035560;28;20488;-80
2023/01/17 13:42:10;;;;;;;6.90;2.22;;;11.50;83.80;;;;;;4981407;28;20397;-80
2023/01/17 13:44:36;;;;;;;2.92;1.60;;;11.50;83.80;;;;;;5021441;28;20034;-81
2023/01/17 13:47:16;;;;;;;3.13;1.60;;;11.50;83.80;;;;;;5022553;28;20040;-81
2023/01/17 13:49:47;;;;;;;3.75;1.60;;;11.50;83.90;;;;;;5039841;28;20033;-81
2023/01/17 13:52:18;;;;;;;3.65;2.10;;;11.50;84.00;;;;;;5021836;28;20044;-81
2023/01/17 13:54:45;;;;;;;4.70;2.10;;;11.50;84.00;;;;;;5039642;28;20512;-80
2023/01/17 13:57:31;;;;;;;3.38;1.80;;;11.50;84.00;;;;;;5039428;28;20053;-81
2023/01/17 14:00:22;;;;;;;3.58;1.95;;;11.50;84.00;;;;;;5017980;28;20029;-80
2023/01/17 14:02:49;;;;;;;4.10;2.10;;;11.50;84.10;;;;;;5000513;28;20124;-81
2023/01/17 14:05:20;;;;;;;4.80;2.10;;;11.40;84.10;;;;;;5038863;28;20102;-80
2023/01/17 14:07:47;;;;;;;4.07;2.17;;;11.40;84.10;;;;;;5020546;28;20454;-81
2023/01/17 14:10:27;;;;;;;4.25;2.30;;;11.40;84.30;;;;;;5020766;28;20021;-81
2023/01/17 14:12:53;;;;;;;4.25;2.08;;;11.40;84.30;;;;;;5036351;28;20067;-80
2023/01/17 14:15:21;;;;;;;4.05;2.20;;;11.40;84.30;;;;;;5035143;28;20099;-80
2023/01/17 14:18:28;;;;;;;3.65;1.90;;;11.40;84.30;;;;;;5019397;28;20029;-81
2023/01/17 14:21:05;;;;;;;4.55;2.38;;;11.30;84.20;;;;;;5037454;28;20033;-81
2023/01/17 14:23:39;;;;;;;4.55;2.20;;;11.30;84.30;;;;;;5037182;28;20014;-79
2023/01/17 14:26:28;;;;;;;3.60;1.92;;;11.40;84.40;;;;;;5019738;28;20436;-80
2023/01/17 14:28:55;;;;;;;4.03;2.03;;;11.30;84.40;;;;;;5036884;28;20021;-80
2023/01/17 14:31:22;;;;;;;4.55;2.28;;;11.30;84.50;;;;;;5019634;28;20488;-79
2023/01/17 14:33:47;;;;;;;5.15;2.00;;;11.30;84.50;;;;;;5030115;28;21360;-77
2023/01/17 14:36:29;;;;;;;4.95;2.30;;;11.30;84.50;;;;;;5033142;28;20040;-80
2023/01/17 14:38:55;;;;;;;4.63;2.15;;;11.30;84.50;;;;;;5019112;28;20056;-80
2023/01/17 14:41:24;;;;;;;4.97;2.53;;;11.30;84.50;;;;;;5034859;28;20513;-78
2023/01/17 14:43:51;;;;;;;4.72;2.30;;;11.30;84.50;;;;;;5034169;28;20028;-77
2023/01/17 14:46:27;;;;;;;4.38;2.20;;;11.30;84.50;;;;;;5030083;28;20025;-78
2023/01/17 14:49:05;;;;;;;4.18;2.10;;;11.30;84.60;;;;;;5029263;28;20091;-79
2023/01/17 14:51:35;;;;;;;4.38;2.38;;;11.20;84.60;;;;;;5025927;28;20030;-79
2023/01/17 14:54:05;;;;;;;4.37;2.30;;;11.20;84.60;;;;;;5034465;28;20469;-79
2023/01/17 14:56:31;;;;;;;5.03;2.40;;;11.30;84.60;;;;;;5035347;28;20276;-77
2023/01/17 14:59:17;;;;;;;4.03;2.40;;;11.20;84.60;;;;;;5017150;28;20036;-77
2023/01/17 15:01:49;;;;;;;5.15;2.55;;;11.20;84.60;;;;;;5009699;28;20120;-76
2023/01/17 15:04:26;;;;;;;4.32;2.40;;;11.20;84.70;;;;;;5022606;28;20396;-76
2023/01/17 15:06:53;;;;;;;6.88;2.65;;;11.20;84.60;;;;;;4990908;28;20678;-78
2023/01/17 15:09:22;;;;;;;4.72;2.70;;;11.20;84.60;;;;;;5009114;28;20738;-78
2023/01/17 15:11:49;;;;;;;4.68;2.50;;;11.20;84.60;;;;;;4991753;28;20264;-78
2023/01/17 15:14:28;;;;;;;5.88;2.88;;;11.20;84.60;;;;;;5000255;28;20021;-76
2023/01/17 15:16:54;;;;;;;4.40;2.70;;;11.20;84.60;;;;;;4994203;28;20126;-78
2023/01/17 15:19:21;;;;;;;4.90;2.67;;;11.20;84.60;;;;;;5008759;28;20429;-78
2023/01/17 15:42:27;;;;;;;5.50;2.88;;;11.10;84.50;;;;;;5084257;28;20072;-78
2023/01/17 15:44:55;;;;;;;6.68;2.78;;;11.10;84.50;;;;;;5085514;28;20476;-76
2023/01/17 15:47:30;;;;;;;5.63;2.80;;;11.10;84.50;;;;;;5084389;28;20062;-77
2023/01/17 15:49:56;;;;;;;5.15;2.92;;;11.10;84.60;;;;;;5084908;28;20115;-77
2023/01/17 15:52:22;;;;;;;5.82;2.90;;;11.10;84.60;;;;;;5084842;28;20036;-79
2023/01/17 15:54:52;;;;;;;5.10;3.03;;;11.10;84.60;;;;;;5084927;28;20024;-78
2023/01/17 15:57:17;;;;;;;7.28;3.38;;;11.10;84.70;;;;;;5084953;28;20035;-78
2023/01/17 15:59:46;;;;;;;6.68;3.15;;;11.10;84.70;;;;;;5085131;28;20023;-78
2023/01/17 16:02:30;;;;;;;5.80;3.10;;;11.10;84.80;;;;;;5086041;28;20032;-79
2023/01/17 16:05:03;;;;;;;6.03;3.15;;;11.10;84.70;;;;;;5085705;28;20048;-79
2023/01/17 16:07:35;;;;;;;5.95;2.88;;;11.00;84.70;;;;;;5085381;28;20024;-78
2023/01/17 16:10:06;;;;;;;5.32;3.00;;;11.00;84.70;;;;;;5085406;28;20031;-79
2023/01/17 16:12:31;;;;;;;6.00;3.25;;;11.10;84.80;;;;;;5084918;28;20050;-77